Time;durP1;ratioP1;P1;durP2;ratioP2;P2;SDS_P1;SDS_P2;PMS_P1;PMS_P2;Temp;Humidity;BMP_temperature;BMP_pressure;BME280_temperature;BME280_humidity;BME280_pressure;Samples;Min_cycle;Max_cycle;Signal;HPM_P1;HPM_P2
2022/09/10 00:01:19;;;;;;;6.43;5.35;;;20.50;99.90;;;;;;5097179;28;20020;-84
2022/09/10 00:03:45;;;;;;;12.25;4.82;;;20.50;99.90;;;;;;5110105;28;20024;-84
2022/09/10 00:06:11;;;;;;;6.40;5.22;;;20.50;99.90;;;;;;5110231;28;20020;-84
2022/09/10 00:08:38;;;;;;;11.35;6.00;;;20.40;99.90;;;;;;5110053;28;20257;-85
2022/09/10 00:11:06;;;;;;;7.80;4.95;;;20.40;99.90;;;;;;5110938;28;20034;-85
2022/09/10 00:13:33;;;;;;;9.10;4.88;;;20.40;99.90;;;;;;5109846;28;20031;-84
2022/09/10 00:16:02;;;;;;;6.95;5.03;;;20.40;99.90;;;;;;5109769;28;20027;-84
2022/09/10 00:18:28;;;;;;;6.38;4.90;;;20.40;99.90;;;;;;5093057;28;20464;-85
2022/09/10 00:20:55;;;;;;;6.22;5.00;;;20.40;99.90;;;;;;5089490;28;20035;-83
2022/09/10 00:23:26;;;;;;;7.90;5.07;;;20.30;99.90;;;;;;5089240;28;20036;-84
2022/09/10 00:25:53;;;;;;;7.80;5.07;;;20.30;99.90;;;;;;5088719;28;20035;-84
2022/09/10 00:28:21;;;;;;;6.63;5.03;;;20.30;99.90;;;;;;5090494;28;20044;-84
2022/09/10 00:30:48;;;;;;;10.70;5.07;;;20.40;99.90;;;;;;5088790;28;20675;-85
2022/09/10 00:33:16;;;;;;;6.88;4.97;;;20.30;99.90;;;;;;5103216;28;20527;-84
2022/09/10 00:35:42;;;;;;;6.60;4.35;;;20.30;99.90;;;;;;5104136;28;20032;-85
2022/09/10 00:38:09;;;;;;;6.10;4.93;;;20.30;99.90;;;;;;5096215;28;20495;-85
2022/09/10 00:40:35;;;;;;;5.90;4.82;;;20.30;99.90;;;;;;5089634;28;20640;-85
2022/09/10 00:43:01;;;;;;;5.50;4.90;;;20.30;99.90;;;;;;5089534;28;20028;-85
2022/09/10 00:45:29;;;;;;;8.05;4.45;;;20.30;99.90;;;;;;5088959;28;20031;-84
2022/09/10 00:48:04;;;;;;;9.10;5.20;;;20.30;99.90;;;;;;5089563;28;20053;-84
2022/09/10 00:50:34;;;;;;;9.70;5.18;;;20.30;99.90;;;;;;5090263;28;20077;-84
2022/09/10 00:53:04;;;;;;;8.32;4.78;;;20.20;99.90;;;;;;5088956;28;20047;-83
2022/09/10 00:55:33;;;;;;;8.30;5.68;;;20.20;99.90;;;;;;5088729;28;20036;-84
2022/09/10 00:58:01;;;;;;;6.82;5.15;;;20.20;99.90;;;;;;5089153;28;20020;-84
2022/09/10 01:00:27;;;;;;;6.20;5.13;;;20.20;99.90;;;;;;5088517;28;20110;-84
2022/09/10 01:02:53;;;;;;;7.65;5.07;;;20.20;99.90;;;;;;5088655;28;20119;-85
2022/09/10 01:05:20;;;;;;;7.03;5.53;;;20.30;99.90;;;;;;5088592;28;20560;-84
2022/09/10 01:07:47;;;;;;;5.82;5.10;;;20.30;99.90;;;;;;5089519;28;20485;-84
2022/09/10 01:10:27;;;;;;;7.07;5.07;;;20.30;99.90;;;;;;5088209;28;20082;-84
2022/09/10 01:13:12;;;;;;;5.45;4.10;;;20.40;99.90;;;;;;5088524;28;20055;-83
2022/09/10 01:16:10;;;;;;;3.67;3.22;;;20.30;99.90;;;;;;5088237;28;20024;-84
2022/09/10 01:18:47;;;;;;;5.53;2.92;;;20.30;99.90;;;;;;5088229;28;20035;-84
2022/09/10 01:21:22;;;;;;;3.55;2.17;;;20.20;99.90;;;;;;5091222;28;20221;-84
2022/09/10 01:24:03;;;;;;;3.50;0.95;;;20.10;99.90;;;;;;5109867;28;20112;-85
2022/09/10 01:26:31;;;;;;;7.25;1.50;;;19.80;99.90;;;;;;5106196;28;20052;-84
2022/09/10 01:29:14;;;;;;;15.23;2.20;;;19.30;99.90;;;;;;5109952;28;20221;-85
2022/09/10 01:31:57;;;;;;;14.27;3.17;;;18.70;99.90;;;;;;5113583;28;20027;-87
2022/09/10 01:34:35;;;;;;;16.40;1.85;;;18.10;99.90;;;;;;5113383;28;20088;-87
2022/09/10 01:37:07;;;;;;;14.75;2.67;;;17.50;99.90;;;;;;5114691;28;20023;-86
2022/09/10 01:39:33;;;;;;;6.22;1.35;;;17.00;99.90;;;;;;5114662;28;20031;-88
2022/09/10 01:41:59;;;;;;;6.78;1.45;;;16.70;99.90;;;;;;5114236;28;20020;-86
2022/09/10 01:44:48;;;;;;;6.00;2.00;;;16.50;99.90;;;;;;5113739;28;20035;-86
2022/09/10 01:47:26;;;;;;;8.15;1.90;;;16.40;99.90;;;;;;5114064;28;20103;-85
2022/09/10 01:50:13;;;;;;;3.92;1.58;;;16.30;99.90;;;;;;5112645;28;20026;-87
2022/09/10 01:52:57;;;;;;;4.35;1.40;;;16.30;99.90;;;;;;5113210;28;20461;-86
2022/09/10 01:55:35;;;;;;;5.75;0.98;;;16.30;99.90;;;;;;5113664;28;20046;-87
2022/09/10 01:58:20;;;;;;;3.78;1.40;;;16.30;99.90;;;;;;5114031;28;20020;-86
2022/09/10 02:01:10;;;;;;;3.40;1.23;;;16.30;99.90;;;;;;5112909;28;20062;-87
2022/09/10 02:03:38;;;;;;;5.80;1.30;;;16.30;99.90;;;;;;5113322;28;20024;-87
2022/09/10 02:06:06;;;;;;;6.32;1.83;;;16.20;99.90;;;;;;5114074;28;20023;-87
2022/09/10 02:08:37;;;;;;;2.83;1.40;;;16.20;99.90;;;;;;5113500;28;20051;-87
2022/09/10 02:11:05;;;;;;;9.95;1.83;;;16.20;99.90;;;;;;5113615;28;20555;-87
2022/09/10 02:13:33;;;;;;;7.18;1.67;;;16.20;99.90;;;;;;5113539;28;20030;-86
2022/09/10 02:16:01;;;;;;;8.10;1.77;;;16.30;99.90;;;;;;5113564;28;20089;-88
2022/09/10 02:18:29;;;;;;;9.35;1.73;;;16.30;99.90;;;;;;5097940;28;20020;-87
2022/09/10 02:20:58;;;;;;;5.97;2.22;;;16.30;99.90;;;;;;5094902;28;20031;-87
2022/09/10 02:23:30;;;;;;;7.40;1.70;;;16.30;99.90;;;;;;5113453;28;20031;-87
2022/09/10 02:25:56;;;;;;;8.55;1.80;;;16.30;99.90;;;;;;5114433;28;20052;-87
2022/09/10 02:28:22;;;;;;;7.10;2.15;;;16.30;99.90;;;;;;5113156;28;20487;-88
2022/09/10 02:30:48;;;;;;;8.18;1.55;;;16.40;99.90;;;;;;5095465;28;20071;-87
2022/09/10 02:33:17;;;;;;;5.80;1.27;;;16.40;99.90;;;;;;5102590;28;20031;-86
2022/09/10 02:35:43;;;;;;;4.70;1.08;;;16.30;99.90;;;;;;5112993;28;20035;-88
2022/09/10 02:38:09;;;;;;;4.07;1.20;;;16.30;99.90;;;;;;5123941;28;20019;-87
2022/09/10 02:40:35;;;;;;;5.20;1.30;;;16.30;99.90;;;;;;5113220;28;20399;-88
2022/09/10 02:43:01;;;;;;;8.15;1.45;;;16.30;99.90;;;;;;5092330;28;20031;-87
2022/09/10 02:45:28;;;;;;;3.38;1.60;;;16.20;99.90;;;;;;5099637;28;20110;-88
2022/09/10 02:47:53;;;;;;;3.58;1.27;;;16.20;99.90;;;;;;5114274;28;20446;-88
2022/09/10 02:50:19;;;;;;;2.22;1.42;;;16.20;99.90;;;;;;5112975;28;20031;-87
2022/09/10 02:52:45;;;;;;;4.28;1.55;;;16.20;99.90;;;;;;5112216;28;20120;-87
2022/09/10 02:55:12;;;;;;;3.03;1.30;;;16.30;99.90;;;;;;5112777;28;20035;-88
2022/09/10 02:57:38;;;;;;;5.15;1.58;;;16.40;99.90;;;;;;5112610;28;20154;-87
2022/09/10 03:00:06;;;;;;;4.38;1.50;;;16.40;99.90;;;;;;5114272;28;20031;-88
2022/09/10 03:02:32;;;;;;;3.55;1.27;;;16.40;99.90;;;;;;5115513;28;20624;-87
2022/09/10 03:04:57;;;;;;;2.45;1.00;;;16.40;99.90;;;;;;5114114;28;20031;-87
2022/09/10 03:07:23;;;;;;;9.48;2.05;;;16.40;99.90;;;;;;5112956;28;20049;-88
2022/09/10 03:09:49;;;;;;;3.17;1.95;;;16.40;99.90;;;;;;5113228;28;20034;-86
2022/09/10 03:12:15;;;;;;;5.70;1.88;;;16.50;99.90;;;;;;5111916;28;20023;-88
2022/09/10 03:14:46;;;;;;;8.88;1.50;;;16.40;99.90;;;;;;5112551;28;20027;-87
2022/09/10 03:17:11;;;;;;;2.75;1.30;;;16.40;99.90;;;;;;5107047;28;20082;-87
2022/09/10 03:19:38;;;;;;;3.75;1.73;;;16.40;99.90;;;;;;5091779;28;20028;-88
2022/09/10 03:22:04;;;;;;;3.88;1.95;;;16.40;99.90;;;;;;5092069;28;20036;-87
2022/09/10 03:24:30;;;;;;;11.95;2.42;;;16.40;99.90;;;;;;5091412;28;20377;-88
2022/09/10 03:26:56;;;;;;;3.22;1.73;;;16.50;99.90;;;;;;5091880;28;20051;-87
2022/09/10 03:29:23;;;;;;;7.32;2.03;;;16.50;99.90;;;;;;5091987;28;20040;-87
2022/09/10 03:31:50;;;;;;;4.00;2.10;;;16.50;99.90;;;;;;5089640;28;20039;-87
2022/09/10 03:34:16;;;;;;;2.90;1.63;;;16.50;99.90;;;;;;5088455;28;20053;-86
2022/09/10 03:36:42;;;;;;;5.32;1.88;;;16.50;99.90;;;;;;5091010;28;20072;-87
2022/09/10 03:39:07;;;;;;;8.63;1.88;;;16.50;99.90;;;;;;5091922;28;20024;-87
2022/09/10 03:41:34;;;;;;;3.33;1.88;;;16.50;99.90;;;;;;5091278;28;20425;-86
2022/09/10 03:44:00;;;;;;;4.55;1.30;;;16.40;99.90;;;;;;5091184;28;20031;-87
2022/09/10 03:46:26;;;;;;;5.20;1.67;;;16.40;99.90;;;;;;5107808;28;20028;-86
2022/09/10 03:48:52;;;;;;;7.07;1.50;;;16.30;99.90;;;;;;5111972;28;20023;-88
2022/09/10 03:51:17;;;;;;;4.07;1.67;;;16.40;99.90;;;;;;5111790;28;20555;-85
2022/09/10 03:53:43;;;;;;;6.75;2.90;;;16.30;99.90;;;;;;5110168;28;20485;-86
2022/09/10 03:56:10;;;;;;;5.95;2.30;;;16.30;99.90;;;;;;5111656;28;20475;-87
2022/09/10 03:58:36;;;;;;;8.68;2.03;;;16.20;99.90;;;;;;5111115;28;20023;-87
2022/09/10 04:01:02;;;;;;;5.53;2.35;;;16.20;99.90;;;;;;5108259;28;20024;-87
2022/09/10 04:03:28;;;;;;;4.20;1.92;;;16.20;99.90;;;;;;5091373;28;20059;-87
2022/09/10 04:05:54;;;;;;;5.32;2.10;;;16.20;99.90;;;;;;5090562;28;20028;-87
2022/09/10 04:08:20;;;;;;;4.10;2.30;;;16.20;99.90;;;;;;5090450;28;20028;-88
2022/09/10 04:10:47;;;;;;;3.20;1.88;;;16.20;99.90;;;;;;5090621;28;20024;-86
2022/09/10 04:13:13;;;;;;;4.90;2.58;;;16.30;99.90;;;;;;5107165;28;20492;-87
2022/09/10 04:15:38;;;;;;;4.97;2.53;;;16.30;99.90;;;;;;5107736;28;20016;-87
2022/09/10 04:18:06;;;;;;;7.35;3.72;;;16.30;99.90;;;;;;5107619;28;20032;-86
2022/09/10 04:20:32;;;;;;;3.97;2.72;;;16.30;99.90;;;;;;5107434;28;20024;-87
2022/09/10 04:22:59;;;;;;;6.53;3.38;;;16.20;99.90;;;;;;5104497;28;20030;-86
2022/09/10 04:25:25;;;;;;;3.58;2.72;;;16.20;99.90;;;;;;5110478;28;20027;-87
2022/09/10 04:27:50;;;;;;;5.00;3.30;;;16.30;99.90;;;;;;5109866;28;20050;-86
2022/09/10 04:30:17;;;;;;;6.05;3.08;;;16.30;99.90;;;;;;5110681;28;20475;-87
2022/09/10 04:32:43;;;;;;;3.90;3.25;;;16.30;99.90;;;;;;5109614;28;20034;-87
2022/09/10 04:35:10;;;;;;;4.22;3.22;;;16.30;99.90;;;;;;5090706;28;20046;-88
2022/09/10 04:37:35;;;;;;;6.35;2.85;;;16.40;99.90;;;;;;5089782;28;20506;-87
2022/09/10 04:40:02;;;;;;;4.78;2.50;;;16.40;99.90;;;;;;5090257;28;20032;-87
2022/09/10 04:42:30;;;;;;;7.15;3.15;;;16.40;99.90;;;;;;5089863;28;20016;-87
2022/09/10 04:44:56;;;;;;;7.43;3.35;;;16.50;99.90;;;;;;5090636;28;20077;-86
2022/09/10 04:47:22;;;;;;;4.35;3.10;;;16.50;99.90;;;;;;5090312;28;20036;-86
2022/09/10 04:49:47;;;;;;;5.38;3.35;;;16.50;99.90;;;;;;5099268;28;20110;-88
2022/09/10 04:52:15;;;;;;;5.10;3.17;;;16.50;99.90;;;;;;5110468;28;20027;-87
2022/09/10 04:54:41;;;;;;;4.85;3.00;;;16.50;99.90;;;;;;5110209;28;20055;-87
2022/09/10 04:57:07;;;;;;;6.57;2.78;;;16.60;99.90;;;;;;5110278;28;20019;-87
2022/09/10 04:59:33;;;;;;;7.72;2.95;;;16.70;99.90;;;;;;5110445;28;20065;-87
2022/09/10 05:02:00;;;;;;;4.85;3.00;;;16.70;99.90;;;;;;5110714;28;20020;-87
2022/09/10 05:04:26;;;;;;;4.18;2.92;;;16.80;99.90;;;;;;5110532;28;20016;-88
2022/09/10 05:06:52;;;;;;;3.45;2.60;;;16.90;99.90;;;;;;5110376;28;20031;-88
2022/09/10 05:09:19;;;;;;;5.47;3.22;;;16.90;99.90;;;;;;5110327;28;20028;-87
2022/09/10 05:11:51;;;;;;;10.40;3.45;;;17.00;99.90;;;;;;5110860;28;20038;-88
2022/09/10 05:14:17;;;;;;;6.65;4.40;;;17.10;99.90;;;;;;5110217;28;20472;-87
2022/09/10 05:16:43;;;;;;;3.67;3.03;;;17.20;99.90;;;;;;5110634;28;20034;-87
2022/09/10 05:19:16;;;;;;;4.13;3.28;;;17.20;99.90;;;;;;5110526;28;20023;-87
2022/09/10 05:21:44;;;;;;;4.68;3.60;;;17.30;99.90;;;;;;5110428;28;20072;-87
2022/09/10 05:24:11;;;;;;;7.55;3.50;;;17.40;99.90;;;;;;5110730;28;20050;-88
2022/09/10 05:26:36;;;;;;;4.38;3.10;;;17.50;99.90;;;;;;5114788;28;20024;-87
2022/09/10 05:29:02;;;;;;;7.22;3.38;;;17.50;99.90;;;;;;5110163;28;20499;-88
2022/09/10 05:31:28;;;;;;;5.43;3.03;;;17.60;99.90;;;;;;5110578;28;20027;-86
2022/09/10 05:33:54;;;;;;;4.75;3.60;;;17.60;99.90;;;;;;5110281;28;20532;-87
2022/09/10 05:36:20;;;;;;;4.05;3.20;;;17.70;99.90;;;;;;5110244;28;20438;-88
2022/09/10 05:38:46;;;;;;;5.32;3.85;;;17.80;99.90;;;;;;5110251;28;20427;-87
2022/09/10 05:41:12;;;;;;;6.47;4.53;;;17.90;99.90;;;;;;5110208;28;20030;-87
2022/09/10 05:43:39;;;;;;;6.20;4.28;;;18.00;99.90;;;;;;5110728;28;20490;-87
2022/09/10 05:46:04;;;;;;;4.57;3.40;;;18.10;99.90;;;;;;5109686;28;20488;-87
2022/09/10 05:48:30;;;;;;;4.43;3.65;;;18.20;99.90;;;;;;5110831;28;20011;-88
2022/09/10 05:50:56;;;;;;;4.53;4.13;;;18.30;99.90;;;;;;5110515;28;20028;-88
2022/09/10 05:53:22;;;;;;;4.45;3.63;;;18.40;99.90;;;;;;5109920;28;20043;-88
2022/09/10 05:55:48;;;;;;;4.90;4.03;;;18.40;99.90;;;;;;5109781;28;20038;-86
2022/09/10 05:58:15;;;;;;;4.78;3.65;;;18.50;99.90;;;;;;5109860;28;20118;-87
2022/09/10 06:00:42;;;;;;;7.00;5.07;;;18.40;99.90;;;;;;5111314;28;20073;-87
2022/09/10 06:03:08;;;;;;;4.47;3.83;;;18.40;99.90;;;;;;5110384;28;20028;-87
2022/09/10 06:05:33;;;;;;;6.80;4.18;;;18.50;99.90;;;;;;5110115;28;20536;-87
2022/09/10 06:07:59;;;;;;;5.78;3.70;;;18.50;99.90;;;;;;5110406;28;20027;-86
2022/09/10 06:10:25;;;;;;;7.25;4.05;;;18.60;99.90;;;;;;5109918;28;20020;-86
2022/09/10 06:12:51;;;;;;;4.90;3.97;;;18.70;99.90;;;;;;5110679;28;20491;-87
2022/09/10 06:15:18;;;;;;;4.57;3.85;;;18.80;99.90;;;;;;5117573;28;20024;-87
2022/09/10 06:17:44;;;;;;;4.65;4.13;;;19.00;99.90;;;;;;5128400;28;20107;-87
2022/09/10 06:20:11;;;;;;;6.20;4.07;;;19.10;99.90;;;;;;5132239;28;20012;-86
2022/09/10 06:22:37;;;;;;;4.57;3.55;;;19.30;99.90;;;;;;5098087;28;20039;-87
2022/09/10 06:25:04;;;;;;;4.38;3.97;;;19.30;99.90;;;;;;5093852;28;20028;-87
2022/09/10 06:27:30;;;;;;;5.22;4.47;;;19.60;99.90;;;;;;5093582;28;20068;-87
2022/09/10 06:29:55;;;;;;;4.95;4.35;;;19.80;99.90;;;;;;5093615;28;20035;-87
2022/09/10 06:32:21;;;;;;;5.38;4.20;;;19.90;99.90;;;;;;5091945;28;20069;-87
2022/09/10 06:34:47;;;;;;;8.68;4.15;;;20.10;99.90;;;;;;5091573;28;20028;-87
2022/09/10 06:37:13;;;;;;;7.43;4.05;;;20.70;99.90;;;;;;5092723;28;20035;-87
2022/09/10 06:39:39;;;;;;;4.30;3.38;;;21.50;99.90;;;;;;5092749;28;20292;-88
2022/09/10 06:42:05;;;;;;;6.38;3.13;;;22.00;99.90;;;;;;5092758;28;20024;-88
2022/09/10 06:44:30;;;;;;;4.10;3.25;;;22.20;99.90;;;;;;5093780;28;20019;-88
2022/09/10 06:46:56;;;;;;;5.35;4.10;;;22.30;99.90;;;;;;5092021;28;20514;-87
2022/09/10 06:49:22;;;;;;;4.32;3.92;;;22.10;99.90;;;;;;5092372;28;20052;-87
2022/09/10 06:51:49;;;;;;;3.95;3.55;;;21.90;99.90;;;;;;5092204;28;20024;-86
2022/09/10 06:54:18;;;;;;;5.88;3.00;;;21.70;99.90;;;;;;5091854;28;20492;-87
2022/09/10 06:56:45;;;;;;;5.05;4.20;;;21.50;99.90;;;;;;5096198;28;20028;-86
2022/09/10 06:59:13;;;;;;;7.25;3.13;;;21.50;99.90;;;;;;5099805;28;20032;-87
2022/09/10 07:01:40;;;;;;;6.88;3.70;;;21.40;99.90;;;;;;5096821;28;20498;-89
2022/09/10 07:04:07;;;;;;;4.82;3.75;;;21.40;99.90;;;;;;5092143;28;20028;-84
2022/09/10 07:06:34;;;;;;;6.70;3.95;;;21.30;99.90;;;;;;5091828;28;20124;-84
2022/09/10 07:09:01;;;;;;;8.65;3.33;;;21.30;99.90;;;;;;5095251;28;20073;-85
2022/09/10 07:11:29;;;;;;;3.85;3.22;;;21.40;99.90;;;;;;5112041;28;20031;-86
2022/09/10 07:13:55;;;;;;;4.32;3.15;;;21.50;99.90;;;;;;5108368;28;20040;-86
2022/09/10 07:16:22;;;;;;;4.32;3.58;;;21.60;99.90;;;;;;5091862;28;20441;-85
2022/09/10 07:18:55;;;;;;;3.63;3.13;;;21.80;99.90;;;;;;5092382;28;20580;-85
2022/09/10 07:21:22;;;;;;;6.25;3.47;;;22.10;99.90;;;;;;5090936;28;20021;-88
2022/09/10 07:23:50;;;;;;;4.28;3.20;;;22.40;99.90;;;;;;5091173;28;20031;-82
2022/09/10 07:26:21;;;;;;;9.73;2.90;;;22.80;99.90;;;;;;5107703;28;20028;-87
2022/09/10 07:28:47;;;;;;;4.93;2.58;;;23.40;99.90;;;;;;5109276;28;20028;-87
2022/09/10 07:31:22;;;;;;;3.13;2.75;;;23.80;99.90;;;;;;5112102;28;20056;-86
2022/09/10 07:33:48;;;;;;;4.35;2.80;;;23.90;99.90;;;;;;5111402;28;20388;-88
2022/09/10 07:36:16;;;;;;;4.43;3.20;;;23.90;99.90;;;;;;5113156;28;20128;-87
2022/09/10 07:38:42;;;;;;;9.98;3.38;;;23.70;99.90;;;;;;5093132;28;20039;-85
2022/09/10 07:41:10;;;;;;;3.60;2.90;;;23.70;99.90;;;;;;5091529;28;20165;-88
2022/09/10 07:43:40;;;;;;;5.07;3.10;;;23.60;99.90;;;;;;5091092;28;20031;-86
2022/09/10 07:46:07;;;;;;;35.40;9.45;;;23.50;99.90;;;;;;5089581;28;20035;-87
2022/09/10 07:48:33;;;;;;;19.92;5.70;;;23.40;99.90;;;;;;5091367;28;20031;-85
2022/09/10 07:51:03;;;;;;;34.72;11.88;;;23.30;99.90;;;;;;5091121;28;20085;-87
2022/09/10 07:53:29;;;;;;;21.50;7.25;;;23.20;99.90;;;;;;5090925;28;20063;-85
2022/09/10 07:56:00;;;;;;;10.52;4.25;;;23.00;99.90;;;;;;5091264;28;20032;-84
2022/09/10 07:58:30;;;;;;;4.45;3.30;;;22.80;99.90;;;;;;5106367;28;20023;-85
2022/09/10 08:00:58;;;;;;;6.07;2.75;;;22.80;99.90;;;;;;5111011;28;20085;-85
2022/09/10 08:03:25;;;;;;;8.20;3.05;;;22.90;99.90;;;;;;5111059;28;20646;-87
2022/09/10 08:05:50;;;;;;;5.97;2.88;;;23.00;99.90;;;;;;5100158;28;20031;-86
2022/09/10 08:08:16;;;;;;;3.67;2.83;;;23.20;99.90;;;;;;5090635;28;20028;-88
2022/09/10 08:10:42;;;;;;;6.35;2.53;;;23.30;99.90;;;;;;5090569;28;20028;-87
2022/09/10 08:13:08;;;;;;;8.73;3.13;;;23.30;99.90;;;;;;5094746;28;20563;-86
2022/09/10 08:15:34;;;;;;;5.50;3.33;;;23.50;99.90;;;;;;5111065;28;20210;-87
2022/09/10 08:18:01;;;;;;;5.50;2.60;;;23.50;99.90;;;;;;5110530;28;20020;-87
2022/09/10 08:20:26;;;;;;;10.27;3.08;;;23.60;99.90;;;;;;5110841;28;20027;-87
2022/09/10 08:22:56;;;;;;;11.65;3.28;;;23.70;99.90;;;;;;5110368;28;20430;-86
2022/09/10 08:25:21;;;;;;;7.10;3.30;;;23.80;99.90;;;;;;5110819;28;20085;-86
2022/09/10 08:27:47;;;;;;;4.75;2.85;;;23.70;99.90;;;;;;5111218;28;20484;-86
2022/09/10 08:30:13;;;;;;;5.68;3.00;;;23.60;99.90;;;;;;5110380;28;20492;-86
2022/09/10 08:32:39;;;;;;;3.70;3.20;;;23.60;99.90;;;;;;5112229;27;20043;-86
2022/09/10 08:35:05;;;;;;;7.00;3.17;;;23.40;99.90;;;;;;5110190;28;20534;-86
2022/09/10 08:37:32;;;;;;;4.40;3.03;;;23.40;99.90;;;;;;5107602;28;20015;-88
2022/09/10 08:39:58;;;;;;;6.88;3.40;;;23.30;99.90;;;;;;5091038;28;20081;-85
2022/09/10 08:42:29;;;;;;;4.82;3.22;;;23.30;99.90;;;;;;5089995;28;20055;-88
2022/09/10 08:45:09;;;;;;;5.35;3.28;;;23.20;99.90;;;;;;5090214;28;20098;-87
2022/09/10 08:47:52;;;;;;;3.03;2.45;;;23.10;99.90;;;;;;5090183;28;20032;-86
2022/09/10 08:50:28;;;;;;;3.83;2.55;;;23.10;99.90;;;;;;5107981;28;20494;-86
2022/09/10 08:52:56;;;;;;;;;;;23.20;99.90;;;;;;5107409;28;20044;-86
2022/09/10 08:55:30;;;;;;;4.88;2.60;;;23.20;99.90;;;;;;5090192;28;20325;-86
2022/09/10 08:58:09;;;;;;;4.88;2.60;;;23.20;99.90;;;;;;5107983;28;20115;-87
2022/09/10 09:00:38;;;;;;;3.00;2.20;;;23.40;99.90;;;;;;5107018;28;20054;-87
2022/09/10 09:03:09;;;;;;;6.55;2.92;;;23.70;99.90;;;;;;5109045;28;20224;-86
2022/09/10 09:06:06;;;;;;;3.38;2.17;;;23.80;99.90;;;;;;5108553;28;20432;-84
2022/09/10 09:08:33;;;;;;;;;;;24.00;99.90;;;;;;5096010;28;20028;-84
2022/09/10 09:11:13;;;;;;;1.70;1.55;;;24.40;99.90;;;;;;5110050;28;19926;-87
2022/09/10 09:13:42;;;;;;;2.92;1.50;;;24.90;99.90;;;;;;5110372;28;20043;-88
2022/09/10 09:16:45;;;;;;;5.20;2.10;;;25.20;99.90;;;;;;5110639;28;20462;-88
2022/09/10 09:19:51;;;;;;;3.30;2.17;;;25.30;99.90;;;;;;5110536;28;20031;-88
2022/09/10 09:22:36;;;;;;;4.05;1.88;;;25.10;99.90;;;;;;5111002;28;20020;-87
2022/09/10 09:25:26;;;;;;;5.05;1.85;;;24.90;99.90;;;;;;5109860;28;20035;-85
2022/09/10 09:27:55;;;;;;;3.50;2.17;;;24.60;99.90;;;;;;5110150;28;20024;-87
2022/09/10 09:30:31;;;;;;;4.13;1.73;;;24.30;99.90;;;;;;5109396;28;20024;-87
2022/09/10 09:33:02;;;;;;;2.78;2.00;;;24.10;99.90;;;;;;5107809;28;20543;-87
2022/09/10 09:35:31;;;;;;;3.08;1.70;;;23.80;99.90;;;;;;5107394;28;20055;-87
2022/09/10 09:38:06;;;;;;;4.43;0.90;;;23.80;99.90;;;;;;5110584;28;20383;-86
2022/09/10 09:40:43;;;;;;;2.05;1.20;;;23.50;99.90;;;;;;5109762;28;20024;-88
2022/09/10 09:43:36;;;;;;;2.90;1.00;;;23.50;99.90;;;;;;5110042;28;20380;-85
2022/09/10 09:46:03;;;;;;;2.17;1.25;;;23.50;99.90;;;;;;5110235;28;20030;-86
2022/09/10 09:48:37;;;;;;;1.60;1.17;;;23.50;99.90;;;;;;5109360;28;20027;-87
2022/09/10 09:51:06;;;;;;;4.75;1.42;;;23.40;99.90;;;;;;5110030;28;20110;-87
2022/09/10 09:53:31;;;;;;;2.70;1.50;;;23.50;99.90;;;;;;5112753;28;20050;-84
2022/09/10 09:56:00;;;;;;;2.72;1.38;;;23.40;99.90;;;;;;5125253;28;20036;-84
2022/09/10 09:58:28;;;;;;;1.83;1.25;;;23.30;99.90;;;;;;5133434;28;20057;-85
2022/09/10 10:01:03;;;;;;;4.00;1.38;;;23.30;99.90;;;;;;5129771;28;20055;-91
2022/09/10 10:03:47;;;;;;;2.78;1.42;;;23.30;99.90;;;;;;5119584;28;20023;-90
2022/09/10 10:06:14;;;;;;;3.40;1.13;;;23.50;99.90;;;;;;5101369;28;20020;-87
2022/09/10 10:08:43;;;;;;;2.42;1.45;;;23.70;99.90;;;;;;5093633;28;20030;-88
2022/09/10 10:11:12;;;;;;;3.45;1.25;;;23.90;99.90;;;;;;5093823;28;20028;-88
2022/09/10 10:13:44;;;;;;;4.28;1.58;;;24.00;99.90;;;;;;5094112;28;20064;-88
2022/09/10 10:16:17;;;;;;;2.60;1.27;;;24.30;99.90;;;;;;5094255;28;20027;-90
2022/09/10 10:18:44;;;;;;;5.88;1.90;;;24.80;99.90;;;;;;5093539;28;20088;-89
2022/09/10 10:21:14;;;;;;;2.60;1.25;;;25.20;99.90;;;;;;5093492;28;20021;-88
2022/09/10 10:23:41;;;;;;;2.28;1.02;;;25.60;99.90;;;;;;5093206;28;20028;-87
2022/09/10 10:26:19;;;;;;;5.95;1.15;;;25.70;99.90;;;;;;5093301;28;20028;-89
2022/09/10 10:29:05;;;;;;;3.03;1.00;;;25.90;99.90;;;;;;5094172;28;20062;-85
2022/09/10 10:31:43;;;;;;;3.65;1.20;;;26.10;99.90;;;;;;5117898;28;20031;-87
2022/09/10 10:34:09;;;;;;;1.88;1.00;;;26.20;99.90;;;;;;5113416;28;20035;-87
2022/09/10 10:37:00;;;;;;;1.73;0.93;;;26.10;99.90;;;;;;5111682;28;20028;-87
2022/09/10 10:39:54;;;;;;;2.47;1.20;;;26.10;99.90;;;;;;5092049;28;20511;-86
2022/09/10 10:42:52;;;;;;;1.52;0.85;;;26.10;99.90;;;;;;5102328;28;20028;-88
2022/09/10 10:45:49;;;;;;;5.32;1.20;;;25.90;99.90;;;;;;5112347;28;20023;-85
2022/09/10 10:48:36;;;;;;;0.90;0.65;;;25.60;99.90;;;;;;5112227;28;20050;-85
2022/09/10 10:51:13;;;;;;;1.30;0.80;;;25.60;99.90;;;;;;5113172;28;20019;-87
2022/09/10 10:53:52;;;;;;;2.28;0.98;;;25.80;99.90;;;;;;5112348;28;20048;-87
2022/09/10 10:56:34;;;;;;;1.88;0.90;;;26.00;99.90;;;;;;5113034;28;20605;-87
2022/09/10 10:59:13;;;;;;;2.42;0.80;;;26.00;99.90;;;;;;5111377;28;20027;-86
2022/09/10 11:02:12;;;;;;;1.77;0.75;;;26.00;99.90;;;;;;5112685;28;20040;-87
2022/09/10 11:04:47;;;;;;;1.92;0.60;;;25.90;99.90;;;;;;5093743;28;20031;-86
2022/09/10 11:07:40;;;;;;;1.88;0.90;;;25.70;99.90;;;;;;5092529;28;20020;-86
2022/09/10 11:10:28;;;;;;;0.90;0.60;;;25.60;99.90;;;;;;5083773;28;20034;-83
2022/09/10 11:13:09;;;;;;;2.92;0.70;;;25.50;99.90;;;;;;5091704;28;20024;-86
2022/09/10 11:15:51;;;;;;;1.40;0.80;;;25.50;99.90;;;;;;5091201;28;20583;-88
2022/09/10 11:18:41;;;;;;;4.45;0.80;;;25.50;99.90;;;;;;5106373;28;20027;-86
2022/09/10 11:21:43;;;;;;;0.80;0.63;;;25.50;99.90;;;;;;5112543;28;20028;-87
2022/09/10 11:24:35;;;;;;;2.05;0.70;;;25.50;99.90;;;;;;5112481;28;20483;-86
2022/09/10 11:27:23;;;;;;;1.73;0.75;;;25.60;99.90;;;;;;5081408;28;20035;-86
2022/09/10 11:29:59;;;;;;;1.30;0.57;;;25.60;99.90;;;;;;5111569;28;20063;-85
2022/09/10 11:32:31;;;;;;;3.75;0.60;;;25.40;99.90;;;;;;5110316;28;20035;-85
2022/09/10 11:35:02;;;;;;;2.17;0.82;;;25.30;99.90;;;;;;5111427;28;20070;-85
2022/09/10 11:37:52;;;;;;;2.83;0.70;;;25.10;99.90;;;;;;5103333;28;20034;-87
2022/09/10 11:40:36;;;;;;;1.10;0.50;;;24.90;99.90;;;;;;5091328;28;20032;-86
2022/09/10 11:43:09;;;;;;;16.65;0.60;;;24.80;99.90;;;;;;5091163;28;20452;-86
2022/09/10 11:45:57;;;;;;;1.50;0.50;;;24.70;99.90;;;;;;5099772;28;20034;-85
2022/09/10 11:48:27;;;;;;;1.27;0.57;;;24.60;99.90;;;;;;5111209;28;20019;-85
2022/09/10 11:51:00;;;;;;;1.33;0.50;;;24.60;99.90;;;;;;5100615;28;20028;-86
2022/09/10 11:53:27;;;;;;;1.15;0.60;;;24.80;99.90;;;;;;5104428;28;20047;-86
2022/09/10 11:56:12;;;;;;;2.88;0.60;;;24.90;99.90;;;;;;5102915;28;20118;-86
2022/09/10 11:59:03;;;;;;;2.28;0.70;;;25.00;99.90;;;;;;5107877;28;20054;-84
2022/09/10 12:01:50;;;;;;;4.80;0.70;;;25.00;99.90;;;;;;5058936;28;20058;-87
2022/09/10 12:04:51;;;;;;;3.33;0.50;;;25.20;99.90;;;;;;5103904;28;20049;-87
2022/09/10 12:07:29;;;;;;;2.17;0.70;;;25.40;99.80;;;;;;5108741;28;20031;-87
2022/09/10 12:10:29;;;;;;;2.78;0.50;;;25.40;99.40;;;;;;5104346;28;20031;-86
2022/09/10 12:12:56;;;;;;;2.25;0.55;;;25.40;99.70;;;;;;5090672;28;20032;-86
2022/09/10 12:15:26;;;;;;;1.17;0.73;;;25.30;98.50;;;;;;5090497;28;20492;-85
2022/09/10 12:17:58;;;;;;;1.15;0.63;;;25.20;99.30;;;;;;5091649;28;20012;-86
2022/09/10 12:20:31;;;;;;;1.33;0.43;;;25.10;99.50;;;;;;5091522;28;20480;-86
2022/09/10 12:22:58;;;;;;;0.98;0.80;;;25.00;98.50;;;;;;5108784;28;20487;-85
2022/09/10 12:25:29;;;;;;;1.30;0.50;;;25.00;98.60;;;;;;5110599;28;20043;-87
2022/09/10 12:27:58;;;;;;;2.05;0.40;;;25.00;98.60;;;;;;5110551;28;20027;-87
2022/09/10 12:30:27;;;;;;;1.42;0.43;;;25.10;99.00;;;;;;5093697;28;20024;-86
2022/09/10 12:32:56;;;;;;;5.97;0.40;;;25.10;99.10;;;;;;5087130;28;20032;-85
2022/09/10 12:35:49;;;;;;;1.08;0.50;;;25.00;99.20;;;;;;5087531;28;20557;-85
2022/09/10 12:38:53;;;;;;;2.03;0.45;;;25.00;98.90;;;;;;5101776;28;20038;-87
2022/09/10 12:41:21;;;;;;;1.95;0.50;;;24.80;98.90;;;;;;5110876;28;20024;-86
2022/09/10 12:43:47;;;;;;;2.25;0.40;;;24.60;99.20;;;;;;5111055;28;20115;-86
2022/09/10 12:46:13;;;;;;;1.00;0.47;;;24.70;99.90;;;;;;5096297;28;20052;-87
2022/09/10 12:48:44;;;;;;;1.15;0.50;;;24.90;99.40;;;;;;5089423;28;20035;-86
2022/09/10 12:51:16;;;;;;;3.35;0.50;;;25.00;98.90;;;;;;5089333;28;20077;-86
2022/09/10 12:54:04;;;;;;;1.13;0.55;;;25.10;99.10;;;;;;5089159;28;20074;-85
2022/09/10 12:56:41;;;;;;;0.85;0.30;;;25.20;97.80;;;;;;5089719;28;20081;-86
2022/09/10 12:59:29;;;;;;;1.80;0.50;;;25.30;98.30;;;;;;5089370;28;20028;-86
2022/09/10 13:01:55;;;;;;;1.05;0.35;;;25.40;97.70;;;;;;5101787;28;20376;-87
2022/09/10 13:04:28;;;;;;;0.45;0.30;;;25.50;97.10;;;;;;5109796;28;20055;-87
2022/09/10 13:06:59;;;;;;;1.60;0.40;;;25.50;96.30;;;;;;5110021;28;20034;-86
2022/09/10 13:09:26;;;;;;;2.78;1.50;;;25.50;96.00;;;;;;5109325;28;20032;-84